Time;durP1;ratioP1;P1;durP2;ratioP2;P2;SDS_P1;SDS_P2;PMS_P1;PMS_P2;Temp;Humidity;BMP_temperature;BMP_pressure;BME280_temperature;BME280_humidity;BME280_pressure;Samples;Min_cycle;Max_cycle;Signal;HPM_P1;HPM_P2
2023/04/11 00:00:18;;;;;;;33.30;24.77;;;;;;;9.97;65.87;149801.47;5083339;28;20095;-67
2023/04/11 00:02:45;;;;;;;31.98;24.17;;;;;;;9.94;66.50;149792.53;5083418;28;20089;-66
2023/04/11 00:05:11;;;;;;;35.67;24.73;;;;;;;9.90;65.98;149782.28;5101824;28;20036;-68
2023/04/11 00:07:37;;;;;;;31.85;23.98;;;;;;;10.01;66.92;149811.72;5090030;28;20031;-67
2023/04/11 00:10:03;;;;;;;32.13;24.08;;;;;;;9.96;66.27;149798.94;5083460;28;20087;-66
2023/04/11 00:12:29;;;;;;;38.60;25.88;;;;;;;9.88;66.35;149778.44;5087248;28;20091;-65
2023/04/11 00:14:55;;;;;;;30.80;24.92;;;;;;;9.59;67.88;149706.66;5104002;28;20032;-65
2023/04/11 00:17:20;;;;;;;34.38;26.35;;;;;;;9.75;67.90;149746.38;5082837;28;20295;-65
2023/04/11 00:19:47;;;;;;;31.40;25.02;;;;;;;9.80;69.18;149757.91;5096994;28;20036;-65
2023/04/11 00:22:14;;;;;;;33.30;25.45;;;;;;;9.88;69.21;149778.44;5103566;28;20032;-64
2023/04/11 00:24:40;;;;;;;37.15;26.33;;;;;;;9.92;70.98;149787.38;5103250;28;20382;-65
2023/04/11 00:27:06;;;;;;;31.98;25.55;;;;;;;9.89;71.33;149779.69;5102812;28;20028;-65
2023/04/11 00:29:32;;;;;;;36.58;27.10;;;;;;;9.78;73.25;149754.06;5083240;28;20036;-65
2023/04/11 00:31:59;;;;;;;35.33;28.17;;;;;;;9.62;73.30;149714.34;5088814;28;20073;-66
2023/04/11 00:34:26;;;;;;;36.80;23.52;;;;;;;9.58;72.88;149704.09;5083110;28;20020;-65
2023/04/11 00:36:52;;;;;;;34.75;23.83;;;;;;;9.63;72.54;149715.63;5090118;28;20081;-65
2023/04/11 00:39:19;;;;;;;34.25;25.42;;;;;;;9.71;73.79;149734.88;5101324;28;20032;-66
2023/04/11 00:41:45;;;;;;;31.17;25.00;;;;;;;9.67;72.91;149725.88;5083072;28;20343;-66
2023/04/11 00:44:12;;;;;;;33.22;25.35;;;;;;;9.65;72.71;149722.03;5100782;28;20051;-64
2023/04/11 00:46:42;;;;;;;32.83;25.45;;;;;;;9.72;74.25;149737.38;5090153;28;20088;-66
2023/04/11 00:49:09;;;;;;;32.42;25.58;;;;;;;9.75;73.59;149746.38;5092461;28;20028;-65
2023/04/11 00:51:35;;;;;;;31.20;25.98;;;;;;;9.56;73.12;149698.94;5098916;28;20048;-66
2023/04/11 00:54:01;;;;;;;41.38;26.58;;;;;;;9.65;73.30;149722.03;5083233;28;20074;-66
2023/04/11 00:56:30;;;;;;;32.50;25.48;;;;;;;9.73;73.53;149741.22;5083141;28;20024;-67
2023/04/11 00:58:56;;;;;;;31.85;26.25;;;;;;;9.71;73.54;149736.13;5083180;28;20320;-65
2023/04/11 01:01:24;;;;;;;30.70;25.35;;;;;;;9.66;72.39;149723.28;5093694;28;20053;-66
2023/04/11 01:03:50;;;;;;;32.28;25.58;;;;;;;9.74;71.90;149742.53;5096763;28;20225;-67
2023/04/11 01:06:19;;;;;;;37.53;26.83;;;;;;;9.66;73.19;149724.59;5084488;28;20050;-65
2023/04/11 01:08:46;;;;;;;29.13;24.42;;;;;;;9.79;72.97;149756.63;5103195;28;20027;-65
2023/04/11 01:11:16;;;;;;;36.90;25.45;;;;;;;9.82;74.32;149764.31;5084134;28;20024;-64
2023/04/11 01:13:42;;;;;;;32.95;25.70;;;;;;;9.84;73.67;149768.16;5096615;28;20140;-66
2023/04/11 01:16:11;;;;;;;29.85;24.63;;;;;;;9.83;74.37;149765.59;5094436;28;20032;-66
2023/04/11 01:18:37;;;;;;;32.28;25.88;;;;;;;9.84;73.52;149768.16;5087403;28;20095;-66
2023/04/11 01:21:03;;;;;;;35.67;26.10;;;;;;;9.76;74.49;149748.97;5101824;28;20103;-67
2023/04/11 01:23:29;;;;;;;34.35;25.30;;;;;;;9.80;74.85;149757.91;5082939;28;20067;-66
2023/04/11 01:25:55;;;;;;;33.00;25.40;;;;;;;9.78;74.47;149754.06;5097597;28;20333;-67
2023/04/11 01:28:21;;;;;;;33.95;26.92;;;;;;;9.79;74.97;149756.63;5092463;28;20044;-66
2023/04/11 01:30:47;;;;;;;29.80;25.23;;;;;;;9.75;74.13;149746.38;5093679;28;20034;-67
2023/04/11 01:33:14;;;;;;;39.90;27.08;;;;;;;9.60;76.20;149707.94;5082624;28;20094;-67
2023/04/11 01:35:40;;;;;;;38.83;25.35;;;;;;;9.61;75.31;149710.50;5082776;28;20032;-67
2023/04/11 01:38:06;;;;;;;39.45;26.52;;;;;;;9.41;76.14;149660.53;5099487;28;20051;-66
2023/04/11 01:40:33;;;;;;;35.75;25.92;;;;;;;9.43;74.33;149665.63;5094687;28;20020;-66
2023/04/11 01:43:00;;;;;;;30.25;25.30;;;;;;;9.42;74.54;149664.38;5086487;28;20340;-65
2023/04/11 01:45:26;;;;;;;33.17;25.23;;;;;;;9.45;74.33;149672.06;5089002;28;20355;-64
2023/04/11 01:47:55;;;;;;;36.97;28.05;;;;;;;9.37;74.90;149651.53;5106702;28;20252;-66
2023/04/11 01:50:21;;;;;;;33.22;25.92;;;;;;;9.36;75.56;149648.97;5087666;28;20253;-66
2023/04/11 01:52:48;;;;;;;33.45;26.08;;;;;;;9.35;74.89;149645.13;5094309;28;20106;-65
2023/04/11 01:55:14;;;;;;;36.22;27.05;;;;;;;9.39;73.42;149656.69;5086156;28;20036;-66
2023/04/11 01:57:39;;;;;;;40.92;27.35;;;;;;;9.35;73.43;149645.13;5090661;28;20083;-66
2023/04/11 02:00:07;;;;;;;36.45;26.50;;;;;;;9.41;73.54;149660.53;5106508;28;20288;-65
2023/04/11 02:02:33;;;;;;;30.85;25.13;;;;;;;9.43;74.34;149666.91;5085911;28;20032;-65
2023/04/11 02:04:58;;;;;;;34.95;27.17;;;;;;;9.40;72.67;149659.22;5101524;28;20031;-65
2023/04/11 02:07:24;;;;;;;35.53;27.30;;;;;;;9.22;72.89;149613.09;5095417;28;20020;-67
2023/04/11 02:09:50;;;;;;;34.25;26.20;;;;;;;9.26;74.09;149624.66;5091611;28;20028;-67
2023/04/11 02:12:15;;;;;;;37.80;25.33;;;;;;;9.33;74.24;149642.59;5105126;28;20024;-66
2023/04/11 02:14:43;;;;;;;33.60;26.10;;;;;;;9.29;73.29;149632.34;5106178;28;20096;-66
2023/04/11 02:17:09;;;;;;;33.25;26.48;;;;;;;9.36;72.37;149647.72;5089388;28;20029;-66
2023/04/11 02:19:40;;;;;;;31.77;25.67;;;;;;;9.39;71.40;149656.69;5085671;28;20033;-65
2023/04/11 02:22:08;;;;;;;38.97;27.38;;;;;;;9.37;72.20;149650.28;5072268;28;20266;-65
2023/04/11 02:24:33;;;;;;;33.63;25.73;;;;;;;9.36;71.91;149647.72;5088875;28;20069;-65
2023/04/11 02:27:00;;;;;;;35.38;26.42;;;;;;;9.33;72.78;149641.28;5105804;28;20084;-67
2023/04/11 02:29:27;;;;;;;37.17;26.90;;;;;;;9.31;73.32;149636.19;5086769;28;20089;-66
2023/04/11 02:31:53;;;;;;;36.33;28.70;;;;;;;9.27;73.43;149625.94;5090300;28;20024;-65
2023/04/11 02:34:19;;;;;;;35.42;28.80;;;;;;;8.94;75.48;149543.94;5085460;28;20038;-66
2023/04/11 02:36:44;;;;;;;33.22;25.83;;;;;;;9.04;75.72;149568.31;5090276;28;20103;-66
2023/04/11 02:39:11;;;;;;;38.00;28.15;;;;;;;9.08;76.29;149579.81;5105632;28;20028;-66
2023/04/11 02:41:40;;;;;;;35.10;27.55;;;;;;;8.97;76.55;149552.91;5085305;28;20028;-66
2023/04/11 02:44:06;;;;;;;35.47;26.40;;;;;;;9.03;76.36;149565.72;5101437;28;20368;-66
2023/04/11 02:46:32;;;;;;;37.92;28.90;;;;;;;9.04;75.43;149569.56;5094085;28;20083;-68
2023/04/11 02:48:57;;;;;;;34.20;27.35;;;;;;;9.02;75.49;149563.16;5091525;28;20077;-66
2023/04/11 02:51:23;;;;;;;37.10;26.52;;;;;;;9.12;76.51;149590.06;5103522;28;20046;-66
2023/04/11 02:53:49;;;;;;;31.05;26.45;;;;;;;9.21;75.20;149611.84;5099276;28;20039;-65
2023/04/11 02:56:17;;;;;;;36.55;26.55;;;;;;;9.23;75.90;149616.94;5088351;28;20093;-67
2023/04/11 02:58:46;;;;;;;35.03;27.25;;;;;;;9.28;75.21;149629.78;5084799;28;20375;-66
2023/04/11 03:01:17;;;;;;;31.80;26.02;;;;;;;9.28;75.20;149628.50;5093147;28;20032;-65
2023/04/11 03:03:43;;;;;;;35.10;27.23;;;;;;;9.30;74.82;149634.88;5100789;28;20025;-67
2023/04/11 03:06:09;;;;;;;33.60;26.45;;;;;;;9.40;74.56;149657.97;5086522;28;20087;-68
2023/04/11 03:08:36;;;;;;;39.65;26.75;;;;;;;9.43;75.12;149666.91;5105188;27;20028;-65
2023/04/11 03:11:02;;;;;;;34.25;27.17;;;;;;;9.34;75.62;149643.88;5088667;28;20024;-66
2023/04/11 03:13:28;;;;;;;33.50;26.48;;;;;;;9.39;75.24;149655.38;5095195;28;20024;-66
2023/04/11 03:15:54;;;;;;;35.95;27.83;;;;;;;9.38;74.63;149654.13;5098751;28;20046;-67
2023/04/11 03:18:21;;;;;;;41.47;28.73;;;;;;;9.37;75.74;149651.53;5085529;28;20036;-66
2023/04/11 03:20:47;;;;;;;32.97;27.80;;;;;;;9.48;75.12;149678.47;5104833;28;20023;-67
2023/04/11 03:23:13;;;;;;;34.72;26.88;;;;;;;9.56;75.53;149697.69;5087343;28;20048;-66
2023/04/11 03:25:39;;;;;;;36.70;28.77;;;;;;;9.59;75.64;149705.34;5096624;28;20035;-66
2023/04/11 03:28:05;;;;;;;36.13;28.40;;;;;;;9.59;75.71;149705.34;5097514;28;20284;-67
2023/04/11 03:30:31;;;;;;;34.55;26.52;;;;;;;9.66;74.76;149724.59;5086703;28;20101;-66
2023/04/11 03:32:59;;;;;;;36.53;27.98;;;;;;;9.66;75.32;149723.28;5085975;28;20047;-67
2023/04/11 03:35:28;;;;;;;40.22;28.60;;;;;;;9.61;73.98;149711.78;5082939;28;20228;-67
2023/04/11 03:37:54;;;;;;;30.83;25.45;;;;;;;9.64;73.49;149719.44;5098109;28;20091;-66
2023/04/11 03:40:19;;;;;;;31.50;25.77;;;;;;;9.75;73.06;149746.38;5095168;28;20032;-67
2023/04/11 03:42:45;;;;;;;32.83;25.83;;;;;;;9.79;72.91;149756.63;5088088;28;20023;-66
2023/04/11 03:45:11;;;;;;;28.35;23.85;;;;;;;9.82;72.66;149764.31;5104159;28;20028;-66
2023/04/11 03:47:39;;;;;;;33.78;26.58;;;;;;;9.87;73.13;149774.59;5083200;28;20075;-67
2023/04/11 03:50:06;;;;;;;31.70;26.67;;;;;;;9.75;74.40;149746.38;5099162;28;20231;-66
2023/04/11 03:52:31;;;;;;;32.67;25.77;;;;;;;9.90;74.42;149783.53;5100294;28;20139;-65
2023/04/11 03:54:57;;;;;;;34.58;27.33;;;;;;;9.80;76.23;149759.16;5089732;28;20028;-66
2023/04/11 03:57:25;;;;;;;35.38;27.73;;;;;;;9.85;76.79;149770.75;5103066;28;20351;-65
2023/04/11 03:59:52;;;;;;;31.55;24.98;;;;;;;9.92;76.60;149787.38;5083955;28;20100;-66
2023/04/11 04:02:17;;;;;;;35.10;25.95;;;;;;;9.87;76.89;149774.59;5100065;28;20042;-64
2023/04/11 04:04:49;;;;;;;36.72;28.00;;;;;;;9.92;77.36;149787.38;5091455;28;20028;-66
2023/04/11 04:07:16;;;;;;;32.83;27.15;;;;;;;9.98;77.95;149802.78;5091514;28;20028;-65
2023/04/11 04:09:42;;;;;;;40.17;30.55;;;;;;;9.99;77.99;149806.63;5100498;28;20251;-65
2023/04/11 04:12:08;;;;;;;37.25;29.92;;;;;;;9.87;77.36;149774.59;5082646;28;20055;-66
2023/04/11 04:14:34;;;;;;;36.33;28.40;;;;;;;9.72;79.16;149738.69;5102572;28;20028;-65
2023/04/11 04:16:59;;;;;;;31.63;23.42;;;;;;;9.74;75.33;149742.53;5089680;28;20032;-65
2023/04/11 04:19:25;;;;;;;28.85;23.55;;;;;;;9.91;76.82;149784.84;5092544;28;20277;-66
2023/04/11 04:21:50;;;;;;;34.65;28.95;;;;;;;9.86;78.92;149773.28;5098577;28;20090;-66
2023/04/11 04:24:16;;;;;;;38.15;28.30;;;;;;;9.88;78.77;149777.16;5082946;28;20068;-65
2023/04/11 04:26:42;;;;;;;30.95;23.95;;;;;;;9.94;77.12;149792.53;5103560;28;20567;-64
2023/04/11 04:29:09;;;;;;;30.63;25.23;;;;;;;9.98;77.29;149802.78;5088206;28;20049;-64
2023/04/11 04:31:35;;;;;;;34.28;27.30;;;;;;;10.03;79.06;149815.56;5086665;28;20095;-65
2023/04/11 04:34:07;;;;;;;32.30;27.75;;;;;;;9.90;80.32;149783.53;5083237;28;20039;-65
2023/04/11 04:36:58;;;;;;;32.45;25.05;;;;;;;10.07;79.38;149825.84;5085064;28;20078;-66
2023/04/11 04:39:24;;;;;;;32.80;25.25;;;;;;;10.22;78.69;149861.72;5101223;28;20127;-65
2023/04/11 04:42:00;;;;;;;30.95;23.67;;;;;;;10.31;78.26;149886.09;5083240;28;20308;-64
2023/04/11 04:44:26;;;;;;;32.35;26.45;;;;;;;10.20;77.25;149857.88;5100787;28;20137;-65
2023/04/11 04:46:56;;;;;;;33.42;26.40;;;;;;;10.22;75.85;149861.72;5089967;28;20044;-66
2023/04/11 04:49:22;;;;;;;34.00;25.23;;;;;;;10.32;75.89;149888.66;5091554;28;20032;-65
2023/04/11 04:51:47;;;;;;;36.58;25.55;;;;;;;10.30;76.18;149882.25;5103316;28;20359;-65
2023/04/11 04:54:18;;;;;;;29.27;25.42;;;;;;;10.50;76.21;149933.63;5085693;28;20040;-66
2023/04/11 04:56:44;;;;;;;31.90;24.77;;;;;;;10.52;76.13;149938.72;5103075;28;20113;-65
2023/04/11 04:59:13;;;;;;;37.72;28.42;;;;;;;10.60;75.53;149956.69;5087916;28;20381;-66
2023/04/11 05:01:39;;;;;;;36.38;26.77;;;;;;;10.64;75.79;149966.94;5093791;28;20085;-65
2023/04/11 05:04:04;;;;;;;33.75;27.95;;;;;;;10.71;75.56;149984.91;5097108;28;20327;-66
2023/04/11 05:06:31;;;;;;;37.50;28.77;;;;;;;10.73;74.46;149990.06;5083941;28;20032;-66
2023/04/11 05:08:58;;;;;;;37.22;30.77;;;;;;;10.64;74.16;149968.22;5103135;28;20089;-65
2023/04/11 05:11:25;;;;;;;40.25;31.63;;;;;;;10.52;74.01;149938.72;5085537;28;20032;-66
2023/04/11 05:13:51;;;;;;;35.67;31.17;;;;;;;10.44;74.96;149916.94;5097582;28;20292;-65
2023/04/11 05:16:17;;;;;;;37.72;30.02;;;;;;;10.53;73.44;149940.00;5097860;28;20020;-68
2023/04/11 05:18:44;;;;;;;33.53;28.45;;;;;;;10.45;72.89;149920.78;5086836;28;20040;-67
2023/04/11 05:21:10;;;;;;;40.75;30.58;;;;;;;10.56;73.14;149946.41;5086933;28;20024;-66
2023/04/11 05:23:36;;;;;;;33.25;27.83;;;;;;;10.50;72.77;149932.31;5105535;28;20027;-66
2023/04/11 05:26:02;;;;;;;36.75;29.48;;;;;;;10.57;71.81;149949.00;5092952;28;20087;-66
2023/04/11 05:28:27;;;;;;;35.70;28.08;;;;;;;10.52;71.72;149937.47;5095695;28;20255;-66
2023/04/11 05:30:53;;;;;;;30.45;24.98;;;;;;;10.48;69.50;149928.47;5102201;28;20024;-65
2023/04/11 05:33:18;;;;;;;35.55;27.73;;;;;;;10.59;70.98;149954.09;5086558;28;20044;-65
2023/04/11 05:35:44;;;;;;;40.00;28.02;;;;;;;10.73;70.21;149988.75;5106625;28;20216;-66
2023/04/11 05:38:10;;;;;;;32.33;27.08;;;;;;;10.95;70.72;150043.91;5090639;28;20024;-67
2023/04/11 05:40:36;;;;;;;33.50;27.77;;;;;;;10.96;69.42;150046.44;5096977;28;20087;-66
2023/04/11 05:43:02;;;;;;;26.35;23.52;;;;;;;11.12;68.82;150086.25;5101188;28;20028;-67
2023/04/11 05:45:28;;;;;;;28.80;25.42;;;;;;;10.94;66.97;150041.34;5086975;28;20063;-65
2023/04/11 05:47:53;;;;;;;27.10;24.05;;;;;;;10.92;67.35;150036.22;5106604;28;20020;-66
2023/04/11 05:50:19;;;;;;;31.80;25.17;;;;;;;10.97;67.39;150049.03;5089912;28;20047;-65
2023/04/11 05:52:44;;;;;;;34.60;27.35;;;;;;;10.88;67.91;150028.50;5092470;28;20090;-66
2023/04/11 05:55:10;;;;;;;35.03;27.40;;;;;;;10.80;67.48;150008.00;5092727;28;20115;-65
2023/04/11 05:57:36;;;;;;;31.23;26.95;;;;;;;10.83;67.41;150015.69;5103274;28;20110;-66
2023/04/11 06:00:06;;;;;;;35.83;27.65;;;;;;;10.95;67.47;150045.19;5085061;28;20051;-66
2023/04/11 06:02:32;;;;;;;29.75;26.40;;;;;;;11.26;67.69;150120.84;5103381;28;20091;-67
2023/04/11 06:04:58;;;;;;;35.33;27.90;;;;;;;11.15;67.91;150095.22;5091652;28;20021;-65
2023/04/11 06:07:26;;;;;;;34.75;28.85;;;;;;;11.37;67.83;150149.09;5093904;28;20016;-68
2023/04/11 06:09:52;;;;;;;30.05;26.67;;;;;;;11.91;66.49;150285.19;5102125;28;20213;-66
2023/04/11 06:12:17;;;;;;;32.25;28.38;;;;;;;12.08;66.58;150326.28;5088015;28;20043;-65
2023/04/11 06:14:43;;;;;;;34.78;29.77;;;;;;;12.21;64.98;150359.69;5096283;28;20050;-66
2023/04/11 06:17:08;;;;;;;35.60;29.17;;;;;;;12.55;65.44;150444.41;5093221;28;20047;-67
2023/04/11 06:19:34;;;;;;;36.95;28.45;;;;;;;12.85;63.94;150517.66;5092262;28;20040;-65
2023/04/11 06:22:00;;;;;;;32.25;27.35;;;;;;;13.33;62.76;150637.16;5092051;28;20036;-65
2023/04/11 06:24:36;;;;;;;32.78;26.38;;;;;;;13.55;60.70;150692.44;5087689;28;20123;-67
2023/04/11 06:27:02;;;;;;;29.52;24.88;;;;;;;13.48;59.59;150675.72;5085249;28;20032;-66
2023/04/11 06:29:28;;;;;;;30.70;25.25;;;;;;;13.40;59.51;150656.47;5085313;28;20036;-67
2023/04/11 06:31:54;;;;;;;31.35;25.92;;;;;;;13.48;59.78;150675.72;5087955;28;20048;-66
2023/04/11 06:34:20;;;;;;;30.92;25.67;;;;;;;13.70;58.14;150729.75;5088289;28;20036;-66
2023/04/11 06:36:48;;;;;;;29.88;24.25;;;;;;;13.68;57.10;150724.59;5096213;28;20045;-67
2023/04/11 06:39:15;;;;;;;26.77;23.20;;;;;;;13.39;58.71;150653.88;5104333;28;20051;-67
2023/04/11 06:41:42;;;;;;;27.50;23.13;;;;;;;13.46;56.47;150670.59;5086499;28;20055;-68
2023/04/11 06:44:07;;;;;;;29.40;23.00;;;;;;;13.78;57.25;150751.59;5099209;28;20087;-69
2023/04/11 06:46:33;;;;;;;26.83;22.33;;;;;;;13.77;57.03;150747.75;5096255;28;20050;-69
2023/04/11 06:48:59;;;;;;;29.67;25.15;;;;;;;13.56;56.46;150696.31;5088606;28;20304;-69
2023/04/11 06:51:25;;;;;;;27.30;24.30;;;;;;;13.66;56.74;150719.47;5105082;28;20081;-66
2023/04/11 06:53:52;;;;;;;21.92;19.13;;;;;;;13.76;53.68;150745.16;5085035;28;20385;-66
2023/04/11 06:56:17;;;;;;;21.20;18.75;;;;;;;13.39;53.24;150652.63;5084764;28;20095;-66
2023/04/11 06:58:43;;;;;;;24.30;21.27;;;;;;;13.89;52.94;150778.56;5077525;28;20032;-69
2023/04/11 07:01:08;;;;;;;27.88;21.50;;;;;;;13.83;52.93;150763.16;5097611;28;20032;-68
2023/04/11 07:03:35;;;;;;;26.95;20.42;;;;;;;14.28;52.30;150875.00;5034032;27;20098;-69
2023/04/11 07:06:01;;;;;;;25.25;19.92;;;;;;;14.17;51.85;150846.75;5103812;28;20032;-69
2023/04/11 07:08:26;;;;;;;28.40;21.52;;;;;;;14.48;51.10;150925.19;5088306;28;20082;-68
2023/04/11 07:10:52;;;;;;;28.38;20.17;;;;;;;14.91;49.31;151033.28;5096282;28;20202;-68
2023/04/11 07:13:19;;;;;;;25.10;19.42;;;;;;;15.81;48.41;151258.56;5097871;28;20031;-68
2023/04/11 07:15:45;;;;;;;26.35;20.20;;;;;;;16.43;47.00;151413.06;5085557;28;20032;-68
2023/04/11 07:18:10;;;;;;;23.40;19.92;;;;;;;16.80;45.05;151504.53;5084246;28;20036;-69
2023/04/11 07:20:36;;;;;;;21.98;18.75;;;;;;;17.60;45.22;151705.66;5084470;28;20068;-68
2023/04/11 07:23:02;;;;;;;24.95;18.75;;;;;;;17.70;43.58;151731.44;5094525;28;20410;-70
2023/04/11 07:25:32;;;;;;;24.92;18.73;;;;;;;17.69;43.49;151728.84;5095182;28;20028;-70
2023/04/11 07:28:05;;;;;;;24.20;18.88;;;;;;;17.42;44.49;151661.81;5088486;28;20076;-71
2023/04/11 07:30:30;;;;;;;22.70;18.77;;;;;;;17.25;42.79;151618.00;5094261;28;20059;-70
2023/04/11 07:32:56;;;;;;;22.10;17.35;;;;;;;17.28;41.19;151624.44;5093250;28;20087;-70
2023/04/11 07:35:21;;;;;;;21.15;17.38;;;;;;;17.31;41.78;151632.19;5088828;28;20036;-70
2023/04/11 07:37:47;;;;;;;22.40;17.23;;;;;;;17.17;42.46;151597.38;5094771;28;20028;-71
2023/04/11 07:40:13;;;;;;;20.30;17.80;;;;;;;16.64;42.13;151465.91;5097064;28;20024;-70
2023/04/11 07:42:39;;;;;;;23.40;18.10;;;;;;;17.05;41.95;151567.75;5085151;28;20063;-69
2023/04/11 07:45:06;;;;;;;22.13;17.90;;;;;;;17.57;43.02;151697.88;5104301;28;20047;-70
2023/04/11 07:47:32;;;;;;;21.75;18.77;;;;;;;17.83;41.58;151763.66;5086961;28;20036;-70
2023/04/11 07:49:57;;;;;;;26.60;21.17;;;;;;;17.86;42.84;151770.13;5096063;28;20028;-70
2023/04/11 07:52:24;;;;;;;30.02;22.50;;;;;;;17.74;42.58;151741.75;5101569;28;20345;-70
2023/04/11 07:54:50;;;;;;;32.30;24.48;;;;;;;17.26;41.85;151620.59;5088330;28;20040;-68
2023/04/11 07:57:16;;;;;;;32.72;25.30;;;;;;;17.34;41.41;151641.19;5103587;28;20342;-69
2023/04/11 07:59:42;;;;;;;29.67;23.90;;;;;;;17.66;41.55;151719.81;5103935;28;20138;-71
2023/04/11 08:02:08;;;;;;;33.15;23.35;;;;;;;17.80;41.46;151755.94;5100754;28;20100;-70
2023/04/11 08:04:35;;;;;;;32.13;24.75;;;;;;;17.17;42.06;151598.69;5090806;28;20038;-70
2023/04/11 08:07:01;;;;;;;35.85;24.70;;;;;;;17.15;43.00;151592.22;5088784;28;20035;-69
2023/04/11 08:09:27;;;;;;;30.25;23.90;;;;;;;16.60;42.89;151455.56;5103621;28;20028;-70
2023/04/11 08:11:53;;;;;;;29.88;23.98;;;;;;;16.99;42.90;151553.56;5082672;28;20028;-70
2023/04/11 08:14:18;;;;;;;28.63;24.05;;;;;;;17.03;42.35;151563.88;5098071;28;20053;-70
2023/04/11 08:16:44;;;;;;;29.10;21.35;;;;;;;16.91;41.68;151532.94;5102240;28;20024;-70
2023/04/11 08:19:10;;;;;;;19.88;17.83;;;;;;;17.17;40.18;151597.38;5098050;28;20092;-69
2023/04/11 08:21:36;;;;;;;20.27;16.88;;;;;;;17.41;39.69;151659.25;5082397;28;20044;-70
2023/04/11 08:24:03;;;;;;;29.70;17.60;;;;;;;17.41;38.32;151659.25;5102494;28;20028;-68
2023/04/11 08:26:29;;;;;;;20.77;16.33;;;;;;;16.86;39.61;151520.00;5093718;28;20032;-68
2023/04/11 08:28:54;;;;;;;21.40;15.32;;;;;;;17.06;39.52;151571.59;5091965;28;20036;-70
2023/04/11 08:31:20;;;;;;;16.50;14.77;;;;;;;17.36;39.05;151645.09;5083712;28;20024;-69
2023/04/11 08:33:46;;;;;;;18.25;16.02;;;;;;;17.20;37.66;151605.09;5095801;28;20031;-69
2023/04/11 08:36:12;;;;;;;23.70;16.15;;;;;;;17.30;38.50;151629.59;5087295;28;20020;-70
2023/04/11 08:38:39;;;;;;;21.23;15.70;;;;;;;17.31;37.35;151633.44;5087957;28;20024;-70
2023/04/11 08:41:05;;;;;;;20.25;16.52;;;;;;;17.44;39.44;151665.66;5087088;28;20032;-71
2023/04/11 08:43:35;;;;;;;21.95;18.75;;;;;;;17.49;40.00;151677.31;5085926;28;20081;-71
2023/04/11 08:46:06;;;;;;;22.48;16.58;;;;;;;17.91;38.63;151784.34;5084140;28;20025;-70
2023/04/11 08:48:32;;;;;;;27.27;18.87;;;;;;;18.05;39.78;151817.88;5096731;28;20046;-69
2023/04/11 08:50:58;;;;;;;26.65;18.65;;;;;;;17.54;39.56;151690.16;5094275;28;20024;-71
2023/04/11 08:53:24;;;;;;;26.88;19.50;;;;;;;17.52;39.70;151686.31;5082700;28;20393;-70
2023/04/11 08:55:51;;;;;;;25.10;20.17;;;;;;;16.79;39.54;151501.97;5084635;28;20048;-69
2023/04/11 08:58:17;;;;;;;35.08;21.58;;;;;;;16.09;40.81;151326.78;5091695;28;20048;-69
2023/04/11 09:00:43;;;;;;;31.38;21.27;;;;;;;16.75;40.17;151492.97;5082126;28;20033;-69
2023/04/11 09:03:11;;;;;;;25.50;20.85;;;;;;;15.68;41.29;151225.06;5088066;28;20062;-70
2023/04/11 09:05:39;;;;;;;26.98;21.23;;;;;;;16.31;41.48;151383.47;5096438;28;20043;-69
2023/04/11 09:08:05;;;;;;;29.65;21.42;;;;;;;16.23;41.17;151362.84;5087168;28;20056;-70
2023/04/11 09:10:31;;;;;;;26.70;21.17;;;;;;;15.90;41.04;151279.16;5089105;28;20055;-68
2023/04/11 09:12:57;;;;;;;28.70;21.50;;;;;;;16.34;41.28;151389.91;5085343;28;20036;-68
2023/04/11 09:15:28;;;;;;;30.27;20.45;;;;;;;16.03;40.64;151313.94;5101595;28;20051;-69
2023/04/11 09:17:55;;;;;;;25.38;20.35;;;;;;;16.44;41.02;151414.38;5091874;28;20025;-69
2023/04/11 09:20:25;;;;;;;21.95;18.20;;;;;;;17.01;40.43;151558.69;5092814;28;20320;-69
2023/04/11 09:22:52;;;;;;;26.23;19.02;;;;;;;17.28;39.21;151624.44;5091539;28;20036;-69
2023/04/11 09:25:19;;;;;;;25.27;20.40;;;;;;;17.48;38.06;151674.72;5088214;28;20020;-69
2023/04/11 09:27:46;;;;;;;29.77;20.92;;;;;;;17.76;39.89;151745.63;5091093;28;20020;-69
2023/04/11 09:30:25;;;;;;;23.35;18.80;;;;;;;17.76;37.43;151745.63;5091960;28;20059;-69
2023/04/11 09:32:52;;;;;;;24.77;18.30;;;;;;;17.95;38.20;151793.34;5089161;28;20266;-71
2023/04/11 09:35:24;;;;;;;30.95;20.05;;;;;;;17.03;37.50;151563.88;5092266;28;20028;-70
2023/04/11 09:37:57;;;;;;;29.58;19.60;;;;;;;16.95;37.33;151543.25;5093256;28;20036;-69
2023/04/11 09:40:25;;;;;;;24.90;19.20;;;;;;;16.80;37.96;151505.88;5088616;28;20024;-70
2023/04/11 09:43:02;;;;;;;30.05;19.70;;;;;;;16.63;38.65;151463.34;5091687;28;20284;-67
2023/04/11 09:45:29;;;;;;;25.00;19.88;;;;;;;17.11;38.38;151581.91;5091232;28;20345;-68
2023/04/11 09:47:56;;;;;;;31.45;19.20;;;;;;;17.15;38.71;151592.22;5088241;28;20070;-68
2023/04/11 09:50:24;;;;;;;25.27;19.55;;;;;;;17.17;37.72;151597.38;5089143;28;20033;-67
2023/04/11 09:52:51;;;;;;;22.48;19.27;;;;;;;16.87;38.28;151523.91;5086361;28;20271;-66
2023/04/11 09:55:22;;;;;;;25.75;18.80;;;;;;;16.61;37.78;151456.91;5090631;28;20028;-66
2023/04/11 09:57:51;;;;;;;23.60;18.48;;;;;;;16.91;38.01;151534.22;5093375;28;20028;-66
2023/04/11 10:00:21;;;;;;;24.92;17.90;;;;;;;17.03;38.51;151563.88;5094301;28;20024;-68
2023/04/11 10:02:49;;;;;;;24.40;18.65;;;;;;;17.22;38.72;151610.28;5094917;28;20020;-67
2023/04/11 10:05:19;;;;;;;23.25;19.00;;;;;;;16.75;37.49;151492.97;5096400;28;20044;-67
2023/04/11 10:07:55;;;;;;;28.25;19.38;;;;;;;16.86;38.23;151520.00;5096632;28;20043;-67
2023/04/11 10:10:23;;;;;;;22.67;17.92;;;;;;;17.02;37.64;151561.28;5086627;28;20032;-69
2023/04/11 10:12:49;;;;;;;23.40;18.23;;;;;;;17.33;37.71;151637.31;5091840;28;20020;-69
2023/04/11 10:15:16;;;;;;;26.08;19.17;;;;;;;17.32;37.13;151634.75;5086784;28;20032;-68
2023/04/11 10:18:02;;;;;;;20.52;17.80;;;;;;;17.49;38.00;151677.31;5090323;28;20256;-68
2023/04/11 10:20:31;;;;;;;24.08;18.02;;;;;;;17.47;37.01;151673.41;5095775;28;20034;-67
2023/04/11 10:22:58;;;;;;;21.95;17.08;;;;;;;17.29;36.07;151628.31;5090440;28;20024;-67
2023/04/11 10:25:24;;;;;;;23.60;16.55;;;;;;;16.82;34.90;151511.00;5095298;28;20036;-68
2023/04/11 10:28:02;;;;;;;20.40;16.75;;;;;;;16.95;36.05;151543.25;5094712;28;20209;-68
2023/04/11 10:30:40;;;;;;;21.92;16.10;;;;;;;16.94;35.81;151540.66;5093736;28;20055;-70
2023/04/11 10:33:14;;;;;;;23.35;15.63;;;;;;;16.86;36.00;151521.31;5094095;28;20091;-69
2023/04/11 10:36:21;;;;;;;18.13;15.50;;;;;;;16.81;35.75;151507.13;5094391;28;20024;-68
2023/04/11 10:38:48;;;;;;;24.38;17.65;;;;;;;16.51;36.76;151432.41;5034433;28;20053;-67
2023/04/11 10:41:13;;;;;;;20.60;17.35;;;;;;;16.85;36.46;151517.44;5042685;28;20080;-67
2023/04/11 10:43:39;;;;;;;22.50;17.77;;;;;;;16.92;36.51;151535.53;5071205;28;20320;-66
2023/04/11 10:46:22;;;;;;;19.70;16.20;;;;;;;16.96;36.11;151545.84;5101846;28;20031;-67
2023/04/11 10:49:02;;;;;;;21.80;14.95;;;;;;;16.94;36.17;151540.66;5085669;28;20031;-68
2023/04/11 10:51:30;;;;;;;19.45;15.98;;;;;;;16.79;36.67;151501.97;5105192;28;20089;-67
2023/04/11 10:54:00;;;;;;;22.60;15.70;;;;;;;16.71;35.41;151483.91;5086419;28;20039;-68
2023/04/11 10:56:41;;;;;;;16.52;14.82;;;;;;;16.66;34.43;151471.06;5083713;28;20029;-67
2023/04/11 10:59:27;;;;;;;21.85;15.20;;;;;;;16.66;35.23;151471.06;5087295;28;20035;-67
2023/04/11 11:01:53;;;;;;;21.35;15.63;;;;;;;16.56;34.75;151445.31;5093945;28;20024;-67
2023/04/11 11:04:20;;;;;;;20.60;15.63;;;;;;;16.67;34.58;151472.34;5094330;28;20028;-68
2023/04/11 11:06:46;;;;;;;19.13;15.15;;;;;;;16.81;34.84;151507.13;5084334;28;20031;-67
2023/04/11 11:09:22;;;;;;;19.05;14.52;;;;;;;16.83;34.74;151512.28;5094742;28;20031;-68
2023/04/11 11:12:04;;;;;;;22.65;14.90;;;;;;;16.86;35.25;151520.00;5092463;28;20225;-67